sensor_id;sensor_type;location;lat;lon;timestamp;pressure;altitude;pressure_sealevel;temperature;humidity
53940;BME280;39850;43.324;21.916;2023-12-14T00:02:29;979.0;;;12.7;66.0
53940;BME280;39850;43.324;21.916;2023-12-14T00:07:05;979.0;;;12.7;66.0
53940;BME280;39850;43.324;21.916;2023-12-14T00:11:42;979.0;;;12.7;66.0
53940;BME280;39850;43.324;21.916;2023-12-14T00:48:36;979.0;;;12.7;65.0
53940;BME280;39850;43.324;21.916;2023-12-14T00:53:12;979.0;;;12.7;65.0
53940;BME280;39850;43.324;21.916;2023-12-14T00:57:48;979.0;;;12.7;65.0
53940;BME280;39850;43.324;21.916;2023-12-14T01:02:25;979.0;;;12.7;65.0
53940;BME280;39850;43.324;21.916;2023-12-14T01:07:01;979.0;;;12.7;64.0
53940;BME280;39850;43.324;21.916;2023-12-14T01:11:37;979.0;;;12.7;64.0
53940;BME280;39850;43.324;21.916;2023-12-14T01:16:14;979.0;;;12.6;64.0
53940;BME280;39850;43.324;21.916;2023-12-14T01:20:51;979.0;;;12.6;64.0
53940;BME280;39850;43.324;21.916;2023-12-14T01:25:27;979.0;;;12.6;63.0
53940;BME280;39850;43.324;21.916;2023-12-14T01:30:08;979.0;;;12.6;63.0
53940;BME280;39850;43.324;21.916;2023-12-14T02:06:58;979.0;;;11.9;66.0
53940;BME280;39850;43.324;21.916;2023-12-14T02:11:34;979.0;;;11.9;66.0
53940;BME280;39850;43.324;21.916;2023-12-14T02:16:11;979.0;;;11.9;67.0
53940;BME280;39850;43.324;21.916;2023-12-14T02:20:47;979.0;;;11.9;67.0
53940;BME280;39850;43.324;21.916;2023-12-14T02:25:25;979.0;;;11.9;67.0
53940;BME280;39850;43.324;21.916;2023-12-14T02:30:01;979.0;;;11.9;67.0
53940;BME280;39850;43.324;21.916;2023-12-14T02:34:37;979.0;;;11.9;67.0
53940;BME280;39850;43.324;21.916;2023-12-14T02:39:14;979.0;;;11.8;67.0
53940;BME280;39850;43.324;21.916;2023-12-14T02:43:50;979.0;;;11.8;67.0
53940;BME280;39850;43.324;21.916;2023-12-14T02:48:26;979.0;;;11.7;67.0
53940;BME280;39850;43.324;21.916;2023-12-14T02:53:03;979.0;;;11.7;67.0
53940;BME280;39850;43.324;21.916;2023-12-14T03:25:20;979.0;;;11.3;71.0
53940;BME280;39850;43.324;21.916;2023-12-14T03:29:57;979.0;;;11.3;71.0
53940;BME280;39850;43.324;21.916;2023-12-14T03:34:33;979.0;;;11.3;71.0
53940;BME280;39850;43.324;21.916;2023-12-14T03:39:09;979.0;;;11.0;71.0
53940;BME280;39850;43.324;21.916;2023-12-14T03:43:46;979.0;;;11.0;71.0
53940;BME280;39850;43.324;21.916;2023-12-14T03:48:22;979.0;;;10.7;71.0
53940;BME280;39850;43.324;21.916;2023-12-14T03:52:58;979.0;;;10.7;71.0
53940;BME280;39850;43.324;21.916;2023-12-14T03:57:35;980.0;;;10.5;73.0
53940;BME280;39850;43.324;21.916;2023-12-14T04:02:11;980.0;;;10.5;73.0
53940;BME280;39850;43.324;21.916;2023-12-14T04:06:48;980.0;;;10.3;75.0
53940;BME280;39850;43.324;21.916;2023-12-14T04:11:24;980.0;;;10.3;75.0
53940;BME280;39850;43.324;21.916;2023-12-14T04:48:14;981.0;;;10.7;78.0
53940;BME280;39850;43.324;21.916;2023-12-14T04:52:50;981.0;;;10.7;78.0
53940;BME280;39850;43.324;21.916;2023-12-14T04:57:27;981.0;;;10.7;78.0
53940;BME280;39850;43.324;21.916;2023-12-14T05:02:05;981.0;;;10.7;78.0
53940;BME280;39850;43.324;21.916;2023-12-14T05:06:41;981.0;;;10.7;77.0
53940;BME280;39850;43.324;21.916;2023-12-14T05:11:18;981.0;;;10.7;77.0
53940;BME280;39850;43.324;21.916;2023-12-14T05:15:54;981.0;;;10.7;77.0
53940;BME280;39850;43.324;21.916;2023-12-14T05:20:30;981.0;;;10.7;77.0
53940;BME280;39850;43.324;21.916;2023-12-14T05:25:09;981.0;;;10.7;77.0
53940;BME280;39850;43.324;21.916;2023-12-14T05:29:45;981.0;;;10.7;77.0
53940;BME280;39850;43.324;21.916;2023-12-14T05:34:21;981.0;;;10.7;77.0
53940;BME280;39850;43.324;21.916;2023-12-14T06:06:39;982.0;;;10.1;79.0
53940;BME280;39850;43.324;21.916;2023-12-14T06:11:15;982.0;;;10.1;79.0
53940;BME280;39850;43.324;21.916;2023-12-14T06:15:52;982.0;;;10.3;79.0
53940;BME280;39850;43.324;21.916;2023-12-14T06:20:28;982.0;;;10.3;79.0
53940;BME280;39850;43.324;21.916;2023-12-14T06:25:08;982.0;;;10.3;79.0
53940;BME280;39850;43.324;21.916;2023-12-14T06:29:44;982.0;;;10.1;78.0
53940;BME280;39850;43.324;21.916;2023-12-14T06:34:21;982.0;;;10.1;78.0
53940;BME280;39850;43.324;21.916;2023-12-14T06:39:01;982.0;;;10.2;78.0
53940;BME280;39850;43.324;21.916;2023-12-14T06:43:37;982.0;;;10.2;78.0
53940;BME280;39850;43.324;21.916;2023-12-14T06:48:14;983.0;;;9.8;78.0
53940;BME280;39850;43.324;21.916;2023-12-14T06:52:50;983.0;;;9.8;78.0
53940;BME280;39850;43.324;21.916;2023-12-14T07:29:43;983.0;;;10.0;77.0
53940;BME280;39850;43.324;21.916;2023-12-14T07:34:20;983.0;;;10.0;77.0
53940;BME280;39850;43.324;21.916;2023-12-14T07:38:56;984.0;;;10.0;77.0
53940;BME280;39850;43.324;21.916;2023-12-14T07:43:32;984.0;;;10.0;77.0
53940;BME280;39850;43.324;21.916;2023-12-14T07:48:09;984.0;;;9.9;77.0
53940;BME280;39850;43.324;21.916;2023-12-14T07:52:45;984.0;;;9.9;77.0
53940;BME280;39850;43.324;21.916;2023-12-14T07:57:22;984.0;;;9.9;78.0
53940;BME280;39850;43.324;21.916;2023-12-14T08:01:58;984.0;;;9.9;78.0
53940;BME280;39850;43.324;21.916;2023-12-14T08:06:35;984.0;;;9.9;78.0
53940;BME280;39850;43.324;21.916;2023-12-14T08:11:11;984.0;;;9.9;78.0
53940;BME280;39850;43.324;21.916;2023-12-14T08:15:48;984.0;;;9.9;78.0
53940;BME280;39850;43.324;21.916;2023-12-14T08:48:05;985.0;;;9.8;84.0
53940;BME280;39850;43.324;21.916;2023-12-14T08:52:42;985.0;;;9.8;84.0
53940;BME280;39850;43.324;21.916;2023-12-14T08:57:18;985.0;;;10.0;84.0
53940;BME280;39850;43.324;21.916;2023-12-14T09:01:54;985.0;;;10.0;84.0
53940;BME280;39850;43.324;21.916;2023-12-14T09:06:30;985.0;;;10.1;84.0
53940;BME280;39850;43.324;21.916;2023-12-14T09:11:07;985.0;;;10.1;84.0
53940;BME280;39850;43.324;21.916;2023-12-14T09:15:43;985.0;;;10.1;84.0
53940;BME280;39850;43.324;21.916;2023-12-14T09:20:21;985.0;;;10.5;83.0
53940;BME280;39850;43.324;21.916;2023-12-14T09:24:57;985.0;;;10.5;83.0
53940;BME280;39850;43.324;21.916;2023-12-14T09:29:33;985.0;;;10.9;82.0
53940;BME280;39850;43.324;21.916;2023-12-14T09:34:11;985.0;;;10.9;82.0
53940;BME280;39850;43.324;21.916;2023-12-14T10:11:16;986.0;;;11.8;83.0
53940;BME280;39850;43.324;21.916;2023-12-14T10:15:52;986.0;;;11.8;83.0
53940;BME280;39850;43.324;21.916;2023-12-14T10:20:28;986.0;;;12.2;80.0
53940;BME280;39850;43.324;21.916;2023-12-14T10:25:08;986.0;;;12.2;80.0
53940;BME280;39850;43.324;21.916;2023-12-14T10:29:46;986.0;;;12.7;77.0
53940;BME280;39850;43.324;21.916;2023-12-14T10:34:22;986.0;;;12.7;77.0
53940;BME280;39850;43.324;21.916;2023-12-14T10:39:01;986.0;;;12.8;76.0
53940;BME280;39850;43.324;21.916;2023-12-14T10:43:44;986.0;;;12.8;76.0
53940;BME280;39850;43.324;21.916;2023-12-14T10:48:22;986.0;;;12.8;75.0
53940;BME280;39850;43.324;21.916;2023-12-14T10:53:04;986.0;;;12.8;75.0
53940;BME280;39850;43.324;21.916;2023-12-14T11:30:39;986.0;;;10.7;79.0
53940;BME280;39850;43.324;21.916;2023-12-14T11:35:15;986.0;;;10.7;79.0
53940;BME280;39850;43.324;21.916;2023-12-14T11:39:52;986.0;;;10.7;79.0
53940;BME280;39850;43.324;21.916;2023-12-14T11:44:28;986.0;;;10.7;79.0
53940;BME280;39850;43.324;21.916;2023-12-14T11:49:05;986.0;;;10.7;80.0
53940;BME280;39850;43.324;21.916;2023-12-14T11:53:47;986.0;;;10.7;80.0
53940;BME280;39850;43.324;21.916;2023-12-14T11:58:25;986.0;;;10.8;80.0
53940;BME280;39850;43.324;21.916;2023-12-14T12:03:17;986.0;;;10.8;80.0
53940;BME280;39850;43.324;21.916;2023-12-14T12:07:58;986.0;;;10.8;80.0
53940;BME280;39850;43.324;21.916;2023-12-14T12:12:34;986.0;;;10.8;80.0
53940;BME280;39850;43.324;21.916;2023-12-14T12:49:24;985.0;;;8.9;85.0
53940;BME280;39850;43.324;21.916;2023-12-14T12:54:01;985.0;;;8.9;85.0
53940;BME280;39850;43.324;21.916;2023-12-14T12:58:37;985.0;;;8.9;85.0
53940;BME280;39850;43.324;21.916;2023-12-14T13:03:14;985.0;;;8.9;85.0
53940;BME280;39850;43.324;21.916;2023-12-14T13:07:50;985.0;;;8.9;86.0
53940;BME280;39850;43.324;21.916;2023-12-14T13:12:26;985.0;;;8.9;86.0
53940;BME280;39850;43.324;21.916;2023-12-14T13:17:03;985.0;;;8.9;86.0
53940;BME280;39850;43.324;21.916;2023-12-14T13:21:40;985.0;;;8.9;86.0
53940;BME280;39850;43.324;21.916;2023-12-14T13:26:16;985.0;;;8.9;86.0
53940;BME280;39850;43.324;21.916;2023-12-14T13:30:52;985.0;;;8.9;86.0
53940;BME280;39850;43.324;21.916;2023-12-14T13:35:29;985.0;;;8.9;86.0
53940;BME280;39850;43.324;21.916;2023-12-14T14:07:47;986.0;;;10.9;82.0
53940;BME280;39850;43.324;21.916;2023-12-14T14:12:23;986.0;;;10.9;82.0
53940;BME280;39850;43.324;21.916;2023-12-14T14:17:00;986.0;;;10.9;82.0
53940;BME280;39850;43.324;21.916;2023-12-14T14:21:36;986.0;;;10.9;82.0
53940;BME280;39850;43.324;21.916;2023-12-14T14:26:12;986.0;;;10.9;82.0
53940;BME280;39850;43.324;21.916;2023-12-14T14:30:49;986.0;;;10.8;82.0
53940;BME280;39850;43.324;21.916;2023-12-14T14:35:25;986.0;;;10.8;82.0
53940;BME280;39850;43.324;21.916;2023-12-14T14:40:07;986.0;;;10.6;82.0
53940;BME280;39850;43.324;21.916;2023-12-14T14:44:43;986.0;;;10.6;82.0
53940;BME280;39850;43.324;21.916;2023-12-14T14:49:19;987.0;;;10.5;84.0
53940;BME280;39850;43.324;21.916;2023-12-14T14:53:56;987.0;;;10.5;84.0
53940;BME280;39850;43.324;21.916;2023-12-14T15:30:46;987.0;;;10.0;87.0
53940;BME280;39850;43.324;21.916;2023-12-14T15:35:23;987.0;;;10.0;87.0
53940;BME280;39850;43.324;21.916;2023-12-14T15:39:59;987.0;;;10.0;86.0
53940;BME280;39850;43.324;21.916;2023-12-14T15:44:35;987.0;;;10.0;86.0
53940;BME280;39850;43.324;21.916;2023-12-14T15:49:12;987.0;;;10.0;87.0
53940;BME280;39850;43.324;21.916;2023-12-14T15:53:48;987.0;;;10.0;87.0
53940;BME280;39850;43.324;21.916;2023-12-14T15:58:25;987.0;;;10.0;86.0
53940;BME280;39850;43.324;21.916;2023-12-14T16:03:02;987.0;;;10.0;86.0
53940;BME280;39850;43.324;21.916;2023-12-14T16:07:38;987.0;;;10.0;87.0
53940;BME280;39850;43.324;21.916;2023-12-14T16:12:15;987.0;;;10.0;87.0
53940;BME280;39850;43.324;21.916;2023-12-14T16:16:51;987.0;;;10.0;87.0
53940;BME280;39850;43.324;21.916;2023-12-14T16:49:07;988.0;;;10.0;88.0
53940;BME280;39850;43.324;21.916;2023-12-14T16:53:43;988.0;;;10.0;88.0
53940;BME280;39850;43.324;21.916;2023-12-14T16:58:19;988.0;;;10.0;88.0
53940;BME280;39850;43.324;21.916;2023-12-14T17:02:55;988.0;;;10.0;88.0
53940;BME280;39850;43.324;21.916;2023-12-14T17:07:32;988.0;;;10.0;88.0
53940;BME280;39850;43.324;21.916;2023-12-14T17:12:08;988.0;;;10.0;88.0
53940;BME280;39850;43.324;21.916;2023-12-14T17:16:46;988.0;;;10.0;88.0
53940;BME280;39850;43.324;21.916;2023-12-14T17:21:28;988.0;;;10.0;88.0
53940;BME280;39850;43.324;21.916;2023-12-14T17:26:05;988.0;;;10.0;88.0
53940;BME280;39850;43.324;21.916;2023-12-14T17:30:41;987.0;;;10.0;88.0
53940;BME280;39850;43.324;21.916;2023-12-14T17:35:18;987.0;;;10.0;88.0
53940;BME280;39850;43.324;21.916;2023-12-14T18:12:08;988.0;;;8.9;88.0
53940;BME280;39850;43.324;21.916;2023-12-14T18:16:44;988.0;;;8.9;88.0
53940;BME280;39850;43.324;21.916;2023-12-14T18:21:21;988.0;;;8.9;88.0
53940;BME280;39850;43.324;21.916;2023-12-14T18:25:57;988.0;;;8.9;88.0
53940;BME280;39850;43.324;21.916;2023-12-14T18:30:33;988.0;;;8.9;89.0
53940;BME280;39850;43.324;21.916;2023-12-14T18:35:10;988.0;;;8.9;89.0
53940;BME280;39850;43.324;21.916;2023-12-14T18:39:46;988.0;;;9.0;90.0
53940;BME280;39850;43.324;21.916;2023-12-14T18:44:22;988.0;;;9.0;90.0
53940;BME280;39850;43.324;21.916;2023-12-14T18:48:59;989.0;;;9.0;91.0
53940;BME280;39850;43.324;21.916;2023-12-14T18:53:35;989.0;;;9.0;91.0
53940;BME280;39850;43.324;21.916;2023-12-14T19:30:32;989.0;;;9.1;90.0
53940;BME280;39850;43.324;21.916;2023-12-14T19:35:09;989.0;;;9.1;90.0
53940;BME280;39850;43.324;21.916;2023-12-14T19:39:46;989.0;;;9.1;90.0
53940;BME280;39850;43.324;21.916;2023-12-14T19:44:22;989.0;;;9.1;90.0
53940;BME280;39850;43.324;21.916;2023-12-14T19:48:58;989.0;;;9.1;90.0
53940;BME280;39850;43.324;21.916;2023-12-14T19:53:35;989.0;;;9.1;90.0
53940;BME280;39850;43.324;21.916;2023-12-14T19:58:11;989.0;;;9.1;90.0
53940;BME280;39850;43.324;21.916;2023-12-14T20:02:47;989.0;;;9.1;90.0
53940;BME280;39850;43.324;21.916;2023-12-14T20:07:24;989.0;;;9.1;90.0
53940;BME280;39850;43.324;21.916;2023-12-14T20:12:00;989.0;;;9.1;91.0
53940;BME280;39850;43.324;21.916;2023-12-14T20:16:36;989.0;;;9.1;91.0
53940;BME280;39850;43.324;21.916;2023-12-14T20:48:53;990.0;;;9.0;90.0
53940;BME280;39850;43.324;21.916;2023-12-14T20:53:29;990.0;;;9.0;90.0
53940;BME280;39850;43.324;21.916;2023-12-14T20:58:06;990.0;;;9.0;90.0
53940;BME280;39850;43.324;21.916;2023-12-14T21:02:42;990.0;;;9.0;91.0
53940;BME280;39850;43.324;21.916;2023-12-14T21:07:19;990.0;;;9.0;91.0
53940;BME280;39850;43.324;21.916;2023-12-14T21:11:55;990.0;;;9.1;92.0
53940;BME280;39850;43.324;21.916;2023-12-14T21:16:32;990.0;;;9.1;92.0
53940;BME280;39850;43.324;21.916;2023-12-14T21:21:08;990.0;;;9.1;92.0
53940;BME280;39850;43.324;21.916;2023-12-14T21:25:45;990.0;;;9.1;92.0
53940;BME280;39850;43.324;21.916;2023-12-14T21:30:22;990.0;;;9.1;92.0
53940;BME280;39850;43.324;21.916;2023-12-14T21:34:58;990.0;;;9.1;92.0
53940;BME280;39850;43.324;21.916;2023-12-14T22:11:50;991.0;;;8.9;90.0
53940;BME280;39850;43.324;21.916;2023-12-14T22:16:26;991.0;;;8.9;90.0
53940;BME280;39850;43.324;21.916;2023-12-14T22:21:04;991.0;;;8.9;90.0
53940;BME280;39850;43.324;21.916;2023-12-14T22:25:40;991.0;;;8.9;90.0
53940;BME280;39850;43.324;21.916;2023-12-14T22:30:16;991.0;;;8.9;90.0
53940;BME280;39850;43.324;21.916;2023-12-14T22:34:53;991.0;;;8.9;90.0
53940;BME280;39850;43.324;21.916;2023-12-14T22:39:29;991.0;;;8.9;90.0
53940;BME280;39850;43.324;21.916;2023-12-14T22:44:07;991.0;;;8.9;90.0
53940;BME280;39850;43.324;21.916;2023-12-14T22:48:43;991.0;;;8.9;90.0
53940;BME280;39850;43.324;21.916;2023-12-14T22:53:19;991.0;;;8.9;90.0
53940;BME280;39850;43.324;21.916;2023-12-14T22:57:56;991.0;;;8.9;90.0
53940;BME280;39850;43.324;21.916;2023-12-14T23:30:13;991.0;;;8.9;90.0
53940;BME280;39850;43.324;21.916;2023-12-14T23:34:49;991.0;;;8.9;90.0
53940;BME280;39850;43.324;21.916;2023-12-14T23:39:26;992.0;;;8.9;89.0
53940;BME280;39850;43.324;21.916;2023-12-14T23:44:02;992.0;;;8.9;89.0
53940;BME280;39850;43.324;21.916;2023-12-14T23:48:39;992.0;;;8.9;89.0
53940;BME280;39850;43.324;21.916;2023-12-14T23:53:15;992.0;;;8.9;89.0
53940;BME280;39850;43.324;21.916;2023-12-14T23:57:51;992.0;;;8.9;89.0
